createdAt,value
2022-12-12T00:00:35.720Z,-10.54
2022-12-12T00:01:35.740Z,-10.46
2022-12-12T00:02:35.845Z,-10.42
2022-12-12T00:03:35.905Z,-10.39
2022-12-12T00:04:35.667Z,-10.37
2022-12-12T00:05:35.666Z,-10.34
2022-12-12T00:06:35.663Z,-10.36
2022-12-12T00:07:35.675Z,-10.39
2022-12-12T00:08:35.641Z,-10.37
2022-12-12T00:09:35.666Z,-10.42
2022-12-12T00:10:35.622Z,-10.46
2022-12-12T00:11:35.681Z,-10.52
2022-12-12T00:12:35.650Z,-10.58
2022-12-12T00:13:35.680Z,-10.61
2022-12-12T00:14:35.591Z,-10.65
2022-12-12T00:15:35.615Z,-10.67
2022-12-12T00:16:35.586Z,-10.71
2022-12-12T00:17:35.567Z,-10.68
2022-12-12T00:18:35.563Z,-10.68
2022-12-12T00:19:35.531Z,-10.65
2022-12-12T00:20:35.696Z,-10.68
2022-12-12T00:21:35.508Z,-10.76
2022-12-12T00:22:35.525Z,-10.81
2022-12-12T00:23:35.552Z,-10.86
2022-12-12T00:24:35.509Z,-10.87
2022-12-12T00:25:35.492Z,-10.89
2022-12-12T00:26:35.540Z,-10.93
2022-12-12T00:27:35.519Z,-10.96
2022-12-12T00:28:35.449Z,-10.98
2022-12-12T00:29:35.489Z,-11.00
2022-12-12T00:30:35.503Z,-10.97
2022-12-12T00:31:35.504Z,-10.94
2022-12-12T00:32:35.437Z,-10.93
2022-12-12T00:33:35.396Z,-10.87
2022-12-12T00:34:35.411Z,-10.86
2022-12-12T00:35:35.375Z,-10.85
2022-12-12T00:36:35.397Z,-10.86
2022-12-12T00:37:35.370Z,-10.87
2022-12-12T00:38:35.404Z,-10.90
2022-12-12T00:39:35.352Z,-10.94
2022-12-12T00:40:35.342Z,-10.97
2022-12-12T00:41:35.323Z,-11.00
2022-12-12T00:42:35.381Z,-11.08
2022-12-12T00:43:35.319Z,-11.12
2022-12-12T00:44:35.296Z,-11.15
2022-12-12T00:45:35.278Z,-11.15
2022-12-12T00:46:35.363Z,-11.19
2022-12-12T00:47:35.309Z,-11.22
2022-12-12T00:48:35.320Z,-11.22
2022-12-12T00:49:35.250Z,-11.25
2022-12-12T00:50:35.760Z,-11.27
2022-12-12T00:51:35.282Z,-11.25
2022-12-12T00:52:35.229Z,-11.25
2022-12-12T00:53:35.213Z,-11.21
2022-12-12T00:54:35.217Z,-11.14
2022-12-12T00:55:35.192Z,-11.07
2022-12-12T00:56:35.213Z,-11.01
2022-12-12T00:57:35.197Z,-10.98
2022-12-12T00:58:35.178Z,-10.93
2022-12-12T00:59:35.187Z,-10.96
2022-12-12T01:00:35.159Z,-10.97
2022-12-12T01:01:35.172Z,-10.98
2022-12-12T01:02:35.183Z,-11.00
2022-12-12T01:03:35.170Z,-11.01
2022-12-12T01:04:35.146Z,-11.01
2022-12-12T01:05:35.121Z,-11.03
2022-12-12T01:06:35.087Z,-11.03
2022-12-12T01:07:35.077Z,-10.98
2022-12-12T01:08:35.095Z,-10.93
2022-12-12T01:09:35.109Z,-10.87
2022-12-12T01:10:35.062Z,-10.87
2022-12-12T01:11:35.059Z,-10.85
2022-12-12T01:12:35.050Z,-10.86
2022-12-12T01:13:35.049Z,-10.86
2022-12-12T01:14:35.072Z,-10.89
2022-12-12T01:15:35.790Z,-10.89
2022-12-12T01:16:35.088Z,-10.93
2022-12-12T01:17:35.308Z,-10.96
2022-12-12T01:18:35.000Z,-10.98
2022-12-12T01:19:34.974Z,-11.04
2022-12-12T01:20:35.040Z,-11.12
2022-12-12T01:21:34.950Z,-11.17
2022-12-12T01:22:34.976Z,-11.18
2022-12-12T01:23:34.976Z,-11.18
2022-12-12T01:24:34.976Z,-11.21
2022-12-12T01:25:34.939Z,-11.24
2022-12-12T01:26:34.923Z,-11.22
2022-12-12T01:27:34.911Z,-11.27
2022-12-12T01:28:34.882Z,-11.17
2022-12-12T01:29:34.911Z,-11.17
2022-12-12T01:30:34.886Z,-11.18
2022-12-12T01:31:34.971Z,-11.17
2022-12-12T01:32:34.849Z,-11.17
2022-12-12T01:33:34.865Z,-11.21
2022-12-12T01:34:34.867Z,-11.22
2022-12-12T01:35:34.846Z,-11.25
2022-12-12T01:36:34.888Z,-11.28
2022-12-12T01:37:34.815Z,-11.25
2022-12-12T01:38:34.812Z,-11.17
2022-12-12T01:39:34.808Z,-11.15
2022-12-12T01:40:34.854Z,-11.19
2022-12-12T01:41:34.946Z,-11.08
2022-12-12T01:42:34.779Z,-11.00
2022-12-12T01:43:34.794Z,-10.96
2022-12-12T01:44:34.779Z,-10.93
2022-12-12T01:45:34.727Z,-10.96
2022-12-12T01:46:34.853Z,-10.94
2022-12-12T01:47:35.335Z,-10.90
2022-12-12T01:48:34.742Z,-10.87
2022-12-12T01:49:34.714Z,-10.85
2022-12-12T01:50:34.707Z,-10.87
2022-12-12T01:51:34.694Z,-10.87
2022-12-12T01:52:34.783Z,-10.90
2022-12-12T01:53:34.689Z,-10.94
2022-12-12T01:54:34.643Z,-10.98
2022-12-12T01:55:34.691Z,-11.03
2022-12-12T01:56:34.672Z,-11.06
2022-12-12T01:57:34.645Z,-11.08
2022-12-12T01:58:34.629Z,-11.06
2022-12-12T01:59:34.601Z,-11.01
2022-12-12T02:00:34.648Z,-11.00
2022-12-12T02:01:34.609Z,-11.06
2022-12-12T02:02:34.616Z,-11.10
2022-12-12T02:03:34.574Z,-11.15
2022-12-12T02:04:34.565Z,-11.17
2022-12-12T02:05:34.548Z,-11.18
2022-12-12T02:06:34.571Z,-11.21
2022-12-12T02:07:34.545Z,-11.22
2022-12-12T02:08:34.570Z,-11.21
2022-12-12T02:09:34.542Z,-11.19
2022-12-12T02:10:34.537Z,-11.19
2022-12-12T02:11:34.539Z,-11.22
2022-12-12T02:12:34.482Z,-11.24
2022-12-12T02:13:34.519Z,-11.25
2022-12-12T02:14:34.469Z,-11.25
2022-12-12T02:15:34.452Z,-11.21
2022-12-12T02:16:34.492Z,-11.18
2022-12-12T02:17:34.552Z,-11.19
2022-12-12T02:18:34.429Z,-11.17
2022-12-12T02:19:34.448Z,-11.14
2022-12-12T02:20:34.403Z,-11.17
2022-12-12T02:21:34.398Z,-11.19
2022-12-12T02:22:34.454Z,-11.27
2022-12-12T02:23:34.414Z,-11.28
2022-12-12T02:24:34.434Z,-11.30
2022-12-12T02:25:34.365Z,-11.32
2022-12-12T02:26:34.352Z,-11.32
2022-12-12T02:27:34.364Z,-11.36
2022-12-12T02:28:34.382Z,-11.39
2022-12-12T02:29:34.322Z,-11.43
2022-12-12T02:30:34.324Z,-11.43
2022-12-12T02:31:34.371Z,-11.43
2022-12-12T02:32:34.300Z,-11.45
2022-12-12T02:33:34.314Z,-11.47
2022-12-12T02:34:34.316Z,-11.54
2022-12-12T02:35:34.293Z,-11.56
2022-12-12T02:36:34.260Z,-11.57
2022-12-12T02:37:34.257Z,-11.58
2022-12-12T02:38:34.244Z,-11.60
2022-12-12T02:39:41.848Z,-11.61
2022-12-12T02:40:34.231Z,-11.66
2022-12-12T02:41:34.222Z,-11.68
2022-12-12T02:42:34.203Z,-11.71
2022-12-12T02:43:34.221Z,-11.72
2022-12-12T02:44:34.192Z,-11.74
2022-12-12T02:45:34.183Z,-11.72
2022-12-12T02:46:34.253Z,-11.68
2022-12-12T02:47:34.157Z,-11.58
2022-12-12T02:48:34.148Z,-11.60
2022-12-12T02:49:34.148Z,-11.61
2022-12-12T02:50:34.165Z,-11.66
2022-12-12T02:51:34.157Z,-11.64
2022-12-12T02:52:34.119Z,-11.64
2022-12-12T02:53:34.097Z,-11.64
2022-12-12T02:54:34.110Z,-11.66
2022-12-12T02:55:36.608Z,-11.71
2022-12-12T02:56:34.168Z,-11.71
2022-12-12T02:57:34.108Z,-11.78
2022-12-12T02:58:34.137Z,-11.79
2022-12-12T02:59:34.058Z,-11.85
2022-12-12T03:00:34.084Z,-11.93
2022-12-12T03:01:34.067Z,-11.93
2022-12-12T03:02:34.075Z,-11.84
2022-12-12T03:03:34.038Z,-11.84
2022-12-12T03:04:34.017Z,-11.88
2022-12-12T03:05:34.012Z,-11.90
2022-12-12T03:06:37.739Z,-11.96
2022-12-12T03:07:35.305Z,-11.92
2022-12-12T03:08:33.974Z,-11.95
2022-12-12T03:09:34.094Z,-11.96
2022-12-12T03:10:33.985Z,-11.98
2022-12-12T03:11:33.962Z,-11.96
2022-12-12T03:12:34.005Z,-11.90
2022-12-12T03:13:33.972Z,-11.93
2022-12-12T03:14:33.976Z,-11.90
2022-12-12T03:15:33.915Z,-11.90
2022-12-12T03:16:33.972Z,-11.84
2022-12-12T03:17:33.913Z,-11.78
2022-12-12T03:18:33.891Z,-11.74
2022-12-12T03:19:33.886Z,-11.72
2022-12-12T03:20:33.907Z,-11.72
2022-12-12T03:21:33.856Z,-11.69
2022-12-12T03:22:33.869Z,-11.69
2022-12-12T03:23:33.826Z,-11.72
2022-12-12T03:24:33.849Z,-11.75
2022-12-12T03:25:33.843Z,-11.78
2022-12-12T03:26:33.799Z,-11.85
2022-12-12T03:27:33.850Z,-11.92
2022-12-12T03:28:33.786Z,-11.95
2022-12-12T03:29:33.800Z,-12.03
2022-12-12T03:30:33.850Z,-12.11
2022-12-12T03:31:33.892Z,-12.17
2022-12-12T03:32:33.782Z,-12.25
2022-12-12T03:33:33.762Z,-12.25
2022-12-12T03:34:33.775Z,-12.24
2022-12-12T03:35:33.730Z,-12.21
2022-12-12T03:36:33.710Z,-12.17
2022-12-12T03:37:33.823Z,-12.11
2022-12-12T03:38:33.718Z,-12.07
2022-12-12T03:39:33.730Z,-12.03
2022-12-12T03:40:33.674Z,-12.06
2022-12-12T03:41:33.669Z,-12.06
2022-12-12T03:42:33.704Z,-12.06
2022-12-12T03:43:33.670Z,-12.07
2022-12-12T03:44:39.771Z,-12.08
2022-12-12T03:45:34.700Z,-12.07
2022-12-12T03:46:33.636Z,-12.07
2022-12-12T03:47:33.669Z,-12.06
2022-12-12T03:48:33.640Z,-12.06
2022-12-12T03:49:33.629Z,-12.06
2022-12-12T03:50:33.602Z,-12.11
2022-12-12T03:51:33.617Z,-12.16
2022-12-12T03:52:33.588Z,-12.16
2022-12-12T03:53:33.609Z,-12.16
2022-12-12T03:54:33.587Z,-12.18
2022-12-12T03:55:33.542Z,-12.24
2022-12-12T03:56:33.556Z,-12.33
2022-12-12T03:57:33.590Z,-12.44
2022-12-12T03:58:33.534Z,-12.54
2022-12-12T03:59:33.535Z,-12.60
2022-12-12T04:00:33.599Z,-12.67
2022-12-12T04:01:33.540Z,-12.70
2022-12-12T04:02:33.567Z,-12.71
2022-12-12T04:03:33.459Z,-12.68
2022-12-12T04:04:33.473Z,-12.70
2022-12-12T04:05:33.536Z,-12.68
2022-12-12T04:06:33.445Z,-12.74
2022-12-12T04:07:33.469Z,-12.77
2022-12-12T04:08:33.474Z,-12.78
2022-12-12T04:09:33.444Z,-12.82
2022-12-12T04:10:33.400Z,-12.82
2022-12-12T04:11:33.421Z,-12.85
2022-12-12T04:12:33.413Z,-12.80
2022-12-12T04:13:33.377Z,-12.68
2022-12-12T04:14:33.424Z,-12.65
2022-12-12T04:15:33.381Z,-12.59
2022-12-12T04:16:33.428Z,-12.50
2022-12-12T04:17:38.317Z,-12.50
2022-12-12T04:18:33.386Z,-12.50
2022-12-12T04:19:33.338Z,-12.49
2022-12-12T04:20:33.333Z,-12.33
2022-12-12T04:21:33.319Z,-12.17
2022-12-12T04:22:33.290Z,-12.17
2022-12-12T04:23:33.327Z,-12.14
2022-12-12T04:24:33.330Z,-12.14
2022-12-12T04:25:33.277Z,-12.13
2022-12-12T04:26:33.256Z,-12.16
2022-12-12T04:27:33.271Z,-12.16
2022-12-12T04:28:33.239Z,-12.13
2022-12-12T04:29:33.277Z,-12.14
2022-12-12T04:30:33.227Z,-12.16
2022-12-12T04:31:33.353Z,-12.10
2022-12-12T04:32:33.260Z,-12.08
2022-12-12T04:33:33.208Z,-12.03
2022-12-12T04:34:33.186Z,-12.06
2022-12-12T04:35:33.170Z,-12.07
2022-12-12T04:36:33.164Z,-12.11
2022-12-12T04:37:33.172Z,-12.14
2022-12-12T04:38:33.167Z,-12.17
2022-12-12T04:39:33.138Z,-12.08
2022-12-12T04:40:33.174Z,-12.10
2022-12-12T04:41:33.163Z,-12.13
2022-12-12T04:42:33.129Z,-12.17
2022-12-12T04:43:33.173Z,-12.21
2022-12-12T04:44:33.174Z,-12.24
2022-12-12T04:45:33.152Z,-12.24
2022-12-12T04:46:33.096Z,-12.24
2022-12-12T04:47:33.088Z,-12.24
2022-12-12T04:48:37.934Z,-12.29
2022-12-12T04:49:34.043Z,-12.30
2022-12-12T04:50:33.045Z,-12.33
2022-12-12T04:51:33.062Z,-12.38
2022-12-12T04:52:33.038Z,-12.36
2022-12-12T04:53:33.122Z,-12.38
2022-12-12T04:54:32.999Z,-12.35
2022-12-12T04:55:32.994Z,-12.30
2022-12-12T04:56:33.027Z,-12.29
2022-12-12T04:57:32.980Z,-12.30
2022-12-12T04:58:33.016Z,-12.33
2022-12-12T04:59:32.964Z,-12.30
2022-12-12T05:00:32.961Z,-12.29
2022-12-12T05:01:33.026Z,-12.25
2022-12-12T05:02:32.970Z,-12.28
2022-12-12T05:03:32.942Z,-12.24
2022-12-12T05:04:32.976Z,-12.25
2022-12-12T05:05:32.894Z,-12.24
2022-12-12T05:06:32.894Z,-12.24
2022-12-12T05:07:39.324Z,-12.21
2022-12-12T05:08:33.983Z,-12.21
2022-12-12T05:09:32.987Z,-12.28
2022-12-12T05:10:32.879Z,-12.30
2022-12-12T05:11:32.927Z,-12.35
2022-12-12T05:12:32.864Z,-12.36
2022-12-12T05:13:32.878Z,-12.40
2022-12-12T05:14:32.856Z,-12.46
2022-12-12T05:15:32.811Z,-12.50
2022-12-12T05:16:33.011Z,-12.59
2022-12-12T05:17:32.792Z,-12.67
2022-12-12T05:18:32.831Z,-12.70
2022-12-12T05:19:32.832Z,-12.74
2022-12-12T05:20:32.791Z,-12.78
2022-12-12T05:21:32.868Z,-12.83
2022-12-12T05:22:32.779Z,-12.86
2022-12-12T05:23:34.808Z,-12.92
2022-12-12T05:24:32.740Z,-12.95
2022-12-12T05:25:32.744Z,-12.95
2022-12-12T05:26:32.765Z,-12.93
2022-12-12T05:27:32.708Z,-12.93
2022-12-12T05:28:32.793Z,-12.91
2022-12-12T05:29:32.716Z,-12.91
2022-12-12T05:30:32.738Z,-12.92
2022-12-12T05:31:32.822Z,-12.91
2022-12-12T05:32:32.700Z,-12.92
2022-12-12T05:33:32.648Z,-12.95
2022-12-12T05:34:32.634Z,-12.95
2022-12-12T05:35:32.651Z,-12.98
2022-12-12T05:36:32.633Z,-12.98
2022-12-12T05:37:32.640Z,-12.95
2022-12-12T05:38:32.655Z,-12.96
2022-12-12T05:39:32.598Z,-12.95
2022-12-12T05:40:32.603Z,-12.96
2022-12-12T05:41:32.575Z,-12.98
2022-12-12T05:42:32.655Z,-12.98
2022-12-12T05:43:32.698Z,-13.00
2022-12-12T05:44:32.617Z,-12.98
2022-12-12T05:45:32.537Z,-12.98
2022-12-12T05:46:32.620Z,-12.98
2022-12-12T05:47:32.525Z,-13.02
2022-12-12T05:48:32.535Z,-13.02
2022-12-12T05:49:32.541Z,-13.04
2022-12-12T05:50:32.499Z,-13.10
2022-12-12T05:51:32.515Z,-13.14
2022-12-12T05:52:32.517Z,-13.17
2022-12-12T05:53:36.411Z,-13.21
2022-12-12T05:54:33.492Z,-13.25
2022-12-12T05:55:32.464Z,-13.25
2022-12-12T05:56:32.466Z,-13.25
2022-12-12T05:57:32.449Z,-13.27
2022-12-12T05:58:32.476Z,-13.25
2022-12-12T05:59:32.445Z,-13.25
2022-12-12T06:00:32.439Z,-13.21
2022-12-12T06:01:32.411Z,-13.13
2022-12-12T06:02:32.456Z,-13.06
2022-12-12T06:03:32.459Z,-13.02
2022-12-12T06:04:32.424Z,-12.98
2022-12-12T06:05:32.377Z,-12.96
2022-12-12T06:06:32.377Z,-12.93
2022-12-12T06:07:32.384Z,-12.98
2022-12-12T06:08:32.481Z,-12.89
2022-12-12T06:09:32.321Z,-12.88
2022-12-12T06:10:32.399Z,-12.85
2022-12-12T06:11:32.402Z,-12.85
2022-12-12T06:12:32.332Z,-12.88
2022-12-12T06:13:32.366Z,-12.88
2022-12-12T06:14:32.307Z,-12.80
2022-12-12T06:15:32.372Z,-12.75
2022-12-12T06:16:32.330Z,-12.74
2022-12-12T06:17:33.457Z,-12.71
2022-12-12T06:18:32.243Z,-12.71
2022-12-12T06:19:32.237Z,-12.65
2022-12-12T06:20:32.240Z,-12.64
2022-12-12T06:21:32.315Z,-12.57
2022-12-12T06:22:32.225Z,-12.54
2022-12-12T06:23:32.232Z,-12.53
2022-12-12T06:24:32.243Z,-12.42
2022-12-12T06:25:32.826Z,-12.35
2022-12-12T06:26:32.200Z,-12.28
2022-12-12T06:27:32.167Z,-12.21
2022-12-12T06:28:32.353Z,-12.16
2022-12-12T06:29:32.162Z,-12.10
2022-12-12T06:30:32.130Z,-12.08
2022-12-12T06:31:32.223Z,-12.06
2022-12-12T06:32:32.134Z,-12.02
2022-12-12T06:33:32.104Z,-11.98
2022-12-12T06:34:32.099Z,-11.93
2022-12-12T06:35:32.209Z,-11.90
2022-12-12T06:36:32.087Z,-11.88
2022-12-12T06:37:32.065Z,-11.85
2022-12-12T06:38:32.066Z,-11.82
2022-12-12T06:39:32.105Z,-11.78
2022-12-12T06:40:32.071Z,-11.75
2022-12-12T06:41:32.077Z,-11.72
2022-12-12T06:42:32.065Z,-11.69
2022-12-12T06:43:32.006Z,-11.66
2022-12-12T06:44:32.028Z,-11.64
2022-12-12T06:45:32.065Z,-11.64
2022-12-12T06:46:32.199Z,-11.64
2022-12-12T06:47:32.006Z,-11.63
2022-12-12T06:48:31.987Z,-11.60
2022-12-12T06:49:32.314Z,-11.68
2022-12-12T06:50:31.991Z,-11.69
2022-12-12T06:51:32.002Z,-11.69
2022-12-12T06:52:31.927Z,-11.66
2022-12-12T06:53:31.955Z,-11.64
2022-12-12T06:54:31.947Z,-11.68
2022-12-12T06:55:39.805Z,-11.66
2022-12-12T06:56:31.979Z,-11.71
2022-12-12T06:57:31.888Z,-11.71
2022-12-12T06:58:31.911Z,-11.75
2022-12-12T06:59:31.894Z,-11.75
2022-12-12T07:00:31.850Z,-11.79
2022-12-12T07:01:31.870Z,-11.81
2022-12-12T07:02:31.867Z,-11.85
2022-12-12T07:03:31.871Z,-11.89
2022-12-12T07:04:31.838Z,-11.95
2022-12-12T07:05:31.815Z,-11.98
2022-12-12T07:06:31.818Z,-11.99
2022-12-12T07:07:31.797Z,-12.07
2022-12-12T07:08:31.853Z,-12.13
2022-12-12T07:09:31.831Z,-12.18
2022-12-12T07:10:31.804Z,-12.21
2022-12-12T07:11:31.811Z,-12.28
2022-12-12T07:12:31.774Z,-12.28
2022-12-12T07:13:31.738Z,-12.25
2022-12-12T07:14:31.783Z,-12.25
2022-12-12T07:15:31.795Z,-12.28
2022-12-12T07:16:31.741Z,-12.30
2022-12-12T07:17:31.717Z,-12.30
2022-12-12T07:18:31.691Z,-12.29
2022-12-12T07:19:31.691Z,-12.24
2022-12-12T07:20:31.670Z,-12.17
2022-12-12T07:21:31.697Z,-12.13
2022-12-12T07:22:31.656Z,-12.08
2022-12-12T07:23:31.655Z,-12.06
2022-12-12T07:24:31.634Z,-12.03
2022-12-12T07:25:31.633Z,-11.99
2022-12-12T07:26:31.618Z,-11.99
2022-12-12T07:27:31.661Z,-11.96
2022-12-12T07:28:31.608Z,-11.95
2022-12-12T07:29:31.601Z,-11.95
2022-12-12T07:30:31.700Z,-11.93
2022-12-12T07:31:31.656Z,-11.95
2022-12-12T07:32:31.591Z,-11.90
2022-12-12T07:33:42.706Z,-11.89
2022-12-12T07:34:32.583Z,-11.89
2022-12-12T07:35:31.544Z,-11.84
2022-12-12T07:36:31.524Z,-11.85
2022-12-12T07:37:31.521Z,-11.84
2022-12-12T07:38:31.526Z,-11.84
2022-12-12T07:39:31.535Z,-11.82
2022-12-12T07:40:31.488Z,-11.81
2022-12-12T07:41:31.481Z,-11.82
2022-12-12T07:42:31.536Z,-11.81
2022-12-12T07:43:33.219Z,-11.78
2022-12-12T07:44:31.465Z,-11.75
2022-12-12T07:45:31.503Z,-11.77
2022-12-12T07:46:31.567Z,-11.75
2022-12-12T07:47:31.445Z,-11.74
2022-12-12T07:48:31.416Z,-11.71
2022-12-12T07:49:31.410Z,-11.68
2022-12-12T07:50:31.398Z,-11.64
2022-12-12T07:51:31.417Z,-11.61
2022-12-12T07:52:31.375Z,-11.58
2022-12-12T07:53:31.369Z,-11.58
2022-12-12T07:54:32.294Z,-11.51
2022-12-12T07:55:31.373Z,-11.46
2022-12-12T07:56:31.348Z,-11.46
2022-12-12T07:57:31.338Z,-11.43
2022-12-12T07:58:31.316Z,-11.39
2022-12-12T07:59:31.348Z,-11.33
2022-12-12T08:00:31.344Z,-11.25
2022-12-12T08:01:31.357Z,-11.17
2022-12-12T08:02:31.292Z,-11.15
2022-12-12T08:03:31.314Z,-11.12
2022-12-12T08:04:31.376Z,-11.10
2022-12-12T08:05:31.263Z,-11.08
2022-12-12T08:06:31.264Z,-11.04
2022-12-12T08:07:31.248Z,-11.01
2022-12-12T08:08:31.292Z,-10.97
2022-12-12T08:09:31.226Z,-10.90
2022-12-12T08:10:31.247Z,-10.86
2022-12-12T08:11:31.200Z,-10.78
2022-12-12T08:12:31.192Z,-10.76
2022-12-12T08:13:31.203Z,-10.67
2022-12-12T08:14:31.203Z,-10.60
2022-12-12T08:15:31.194Z,-10.55
2022-12-12T08:16:31.256Z,-10.49
2022-12-12T08:17:31.176Z,-10.46
2022-12-12T08:18:31.154Z,-10.31
2022-12-12T08:19:31.159Z,-10.26
2022-12-12T08:20:31.143Z,-10.19
2022-12-12T08:21:31.159Z,-10.14
2022-12-12T08:22:31.107Z,-10.11
2022-12-12T08:23:31.118Z,-10.08
2022-12-12T08:24:31.102Z,-10.04
2022-12-12T08:25:31.077Z,-9.98
2022-12-12T08:26:31.070Z,-9.93
2022-12-12T08:27:31.060Z,-9.83
2022-12-12T08:28:31.050Z,-9.90
2022-12-12T08:29:31.321Z,-9.87
2022-12-12T08:30:31.068Z,-9.85
2022-12-12T08:31:31.100Z,-9.87
2022-12-12T08:32:31.017Z,-10.00
2022-12-12T08:33:31.032Z,-10.03
2022-12-12T08:34:31.025Z,-9.95
2022-12-12T08:35:30.980Z,-9.78
2022-12-12T08:36:30.970Z,-9.76
2022-12-12T08:37:30.980Z,-9.69
2022-12-12T08:38:30.953Z,-9.55
2022-12-12T08:39:31.031Z,-9.35
2022-12-12T08:40:30.936Z,-9.04
2022-12-12T08:41:30.934Z,-8.86
2022-12-12T08:42:30.941Z,-8.74
2022-12-12T08:43:30.907Z,-8.53
2022-12-12T08:44:30.936Z,-8.60
2022-12-12T08:45:30.882Z,-8.72
2022-12-12T08:46:30.979Z,-8.53
2022-12-12T08:47:30.895Z,-8.54
2022-12-12T08:48:30.850Z,-8.55
2022-12-12T08:49:30.846Z,-8.48
2022-12-12T08:50:30.857Z,-8.21
2022-12-12T08:51:30.832Z,-7.92
2022-12-12T08:52:30.818Z,-7.68
2022-12-12T08:53:30.810Z,-7.43
2022-12-12T08:54:30.851Z,-6.93
2022-12-12T08:55:30.784Z,-5.95
2022-12-12T08:56:30.822Z,-5.11
2022-12-12T08:57:30.885Z,-4.44
2022-12-12T08:58:30.756Z,-3.47
2022-12-12T08:59:30.774Z,-2.82
2022-12-12T09:00:30.750Z,-2.19
2022-12-12T09:01:30.856Z,-1.44
2022-12-12T09:02:30.899Z,-1.33
2022-12-12T09:03:30.796Z,-1.33
2022-12-12T09:04:30.712Z,-1.49
2022-12-12T09:05:30.690Z,-1.59
2022-12-12T09:06:30.680Z,-1.33
2022-12-12T09:07:30.664Z,-1.22
2022-12-12T09:08:30.753Z,-0.82
2022-12-12T09:09:30.683Z,-1.19
2022-12-12T09:10:30.634Z,-0.82
2022-12-12T09:11:30.638Z,-0.58
2022-12-12T09:12:30.624Z,-0.95
2022-12-12T09:13:30.622Z,-0.49
2022-12-12T09:14:30.698Z,-0.22
2022-12-12T09:15:30.587Z,-0.07
2022-12-12T09:16:30.712Z,0.27
2022-12-12T09:17:30.583Z,0.67
2022-12-12T09:18:30.578Z,0.55
2022-12-12T09:19:30.598Z,0.73
2022-12-12T09:20:30.531Z,0.05
2022-12-12T09:21:30.541Z,-0.98
2022-12-12T09:22:30.514Z,-1.75
2022-12-12T09:23:30.515Z,-2.46
2022-12-12T09:24:30.484Z,-2.77
2022-12-12T09:25:30.479Z,-2.30
2022-12-12T09:26:30.484Z,-2.16
2022-12-12T09:27:30.457Z,-1.49
2022-12-12T09:28:30.441Z,-1.28
2022-12-12T09:29:30.479Z,-1.21
2022-12-12T09:30:30.475Z,-0.86
2022-12-12T09:31:30.489Z,-0.64
2022-12-12T09:32:30.420Z,-0.07
2022-12-12T09:33:30.410Z,0.47
2022-12-12T09:34:30.427Z,0.36
2022-12-12T09:35:30.399Z,0.55
2022-12-12T09:36:30.379Z,0.44
2022-12-12T09:37:30.353Z,0.80
2022-12-12T09:38:30.357Z,0.72
2022-12-12T09:39:30.325Z,1.09
2022-12-12T09:40:30.344Z,0.72
2022-12-12T09:41:30.314Z,1.35
2022-12-12T09:42:30.324Z,1.74
2022-12-12T09:43:30.399Z,2.58
2022-12-12T09:44:30.313Z,2.53
2022-12-12T09:45:30.329Z,3.20
2022-12-12T09:46:30.254Z,3.84
2022-12-12T09:47:34.853Z,4.39
2022-12-12T09:48:30.240Z,3.59
2022-12-12T09:49:30.240Z,2.14
2022-12-12T09:50:30.239Z,1.24
2022-12-12T09:51:30.232Z,1.84
2022-12-12T09:52:31.287Z,2.40
2022-12-12T09:53:30.185Z,1.64
2022-12-12T09:54:30.220Z,1.23
2022-12-12T09:55:30.162Z,1.36
2022-12-12T09:56:30.183Z,1.09
2022-12-12T09:57:30.140Z,1.84
2022-12-12T09:58:30.158Z,2.48
2022-12-12T09:59:30.139Z,2.90
2022-12-12T10:00:30.232Z,3.25
2022-12-12T10:01:30.375Z,3.42
2022-12-12T10:02:30.154Z,3.80
2022-12-12T10:03:30.074Z,4.53
2022-12-12T10:04:30.071Z,4.85
2022-12-12T10:05:30.078Z,4.36
2022-12-12T10:06:38.267Z,4.66
2022-12-12T10:07:31.091Z,4.77
2022-12-12T10:08:30.170Z,4.97
2022-12-12T10:09:30.039Z,4.94
2022-12-12T10:10:29.993Z,4.93
2022-12-12T10:11:29.992Z,5.29
2022-12-12T10:12:29.989Z,5.19
2022-12-12T10:13:29.980Z,4.74
2022-12-12T10:14:29.962Z,4.16
2022-12-12T10:15:29.942Z,4.41
2022-12-12T10:16:29.951Z,4.83
2022-12-12T10:17:29.924Z,4.57
2022-12-12T10:18:29.963Z,3.99
2022-12-12T10:19:30.042Z,3.76
2022-12-12T10:20:29.885Z,4.00
2022-12-12T10:21:29.875Z,4.05
2022-12-12T10:22:29.915Z,3.94
2022-12-12T10:23:29.868Z,4.20
2022-12-12T10:24:29.870Z,4.48
2022-12-12T10:25:29.844Z,4.88
2022-12-12T10:26:29.826Z,4.51
2022-12-12T10:27:29.882Z,4.20
2022-12-12T10:28:29.798Z,4.31
2022-12-12T10:29:29.791Z,3.82
2022-12-12T10:30:29.833Z,4.49
2022-12-12T10:31:29.827Z,4.69
2022-12-12T10:32:29.772Z,4.53
2022-12-12T10:33:29.739Z,5.06
2022-12-12T10:34:29.726Z,5.30
2022-12-12T10:35:30.165Z,5.95
2022-12-12T10:36:29.740Z,6.50
2022-12-12T10:37:29.709Z,6.02
2022-12-12T10:38:29.693Z,5.91
2022-12-12T10:39:29.721Z,6.28
2022-12-12T10:40:29.704Z,6.34
2022-12-12T10:41:29.664Z,6.25
2022-12-12T10:42:37.862Z,6.11
2022-12-12T10:43:29.655Z,6.74
2022-12-12T10:44:29.882Z,7.00
2022-12-12T10:45:29.804Z,7.24
2022-12-12T10:46:29.770Z,7.54
2022-12-12T10:47:34.382Z,8.13
2022-12-12T10:48:29.621Z,8.32
2022-12-12T10:49:29.659Z,8.14
2022-12-12T10:50:29.610Z,6.92
2022-12-12T10:51:29.582Z,4.75
2022-12-12T10:52:29.598Z,3.69
2022-12-12T10:53:29.555Z,3.27
2022-12-12T10:54:29.541Z,3.62
2022-12-12T10:55:29.642Z,4.39
2022-12-12T10:56:29.571Z,5.00
2022-12-12T10:57:29.508Z,5.44
2022-12-12T10:58:29.476Z,5.61
2022-12-12T10:59:29.463Z,5.88
2022-12-12T11:00:29.487Z,6.02
2022-12-12T11:02:00.244Z,5.88
2022-12-12T11:02:30.627Z,5.58
2022-12-12T11:03:29.530Z,5.85
2022-12-12T11:04:29.447Z,5.12
2022-12-12T11:05:29.395Z,5.04
2022-12-12T11:06:29.481Z,4.98
2022-12-12T11:07:29.383Z,4.74
2022-12-12T11:08:29.445Z,4.45
2022-12-12T11:09:29.456Z,4.36
2022-12-12T11:10:34.019Z,3.98
2022-12-12T11:11:29.376Z,2.84
2022-12-12T11:12:29.352Z,2.07
2022-12-12T11:13:29.333Z,1.52
2022-12-12T11:14:29.424Z,0.67
2022-12-12T11:15:29.302Z,0.11
2022-12-12T11:16:29.352Z,-0.20
2022-12-12T11:17:29.278Z,-1.15
2022-12-12T11:18:29.263Z,-1.46
2022-12-12T11:19:29.329Z,-1.86
2022-12-12T11:20:29.238Z,-2.08
2022-12-12T11:21:29.303Z,-2.29
2022-12-12T11:22:29.292Z,-2.33
2022-12-12T11:23:29.222Z,-2.54
2022-12-12T11:24:29.211Z,-2.55
2022-12-12T11:25:29.238Z,-2.84
2022-12-12T11:26:29.175Z,-3.08
2022-12-12T11:27:29.197Z,-3.05
2022-12-12T11:28:29.179Z,-3.08
2022-12-12T11:29:29.167Z,-3.12
2022-12-12T11:30:29.153Z,-3.06
2022-12-12T11:31:29.143Z,-3.08
2022-12-12T11:32:29.111Z,-3.02
2022-12-12T11:33:29.129Z,-3.12
2022-12-12T11:34:29.117Z,-3.20
2022-12-12T11:35:29.095Z,-3.13
2022-12-12T11:36:29.079Z,-3.15
2022-12-12T11:37:29.084Z,-3.20
2022-12-12T11:38:29.069Z,-3.24
2022-12-12T11:39:29.081Z,-3.24
2022-12-12T11:40:29.044Z,-3.26
2022-12-12T11:41:29.855Z,-3.24
2022-12-12T11:42:29.007Z,-3.18
2022-12-12T11:43:29.014Z,-3.23
2022-12-12T11:44:29.016Z,-3.18
2022-12-12T11:45:29.137Z,-2.95
2022-12-12T11:46:28.978Z,-2.69
2022-12-12T11:47:28.961Z,-2.64
2022-12-12T11:48:28.971Z,-2.63
2022-12-12T11:49:28.932Z,-2.46
2022-12-12T11:50:28.936Z,-2.09
2022-12-12T11:51:28.940Z,-1.91
2022-12-12T11:52:28.981Z,-2.06
2022-12-12T11:53:29.028Z,-2.18
2022-12-12T11:54:28.954Z,-2.56
2022-12-12T11:55:28.906Z,-2.66
2022-12-12T11:56:28.983Z,-2.67
2022-12-12T11:57:28.870Z,-2.56
2022-12-12T11:58:28.942Z,-2.70
2022-12-12T11:59:28.907Z,-2.88
2022-12-12T12:00:28.877Z,-2.87
2022-12-12T12:01:28.848Z,-2.90
2022-12-12T12:02:28.864Z,-3.20
2022-12-12T12:03:28.883Z,-3.54
2022-12-12T12:04:28.892Z,-3.74
2022-12-12T12:05:28.907Z,-3.69
2022-12-12T12:06:28.756Z,-3.87
2022-12-12T12:07:28.753Z,-3.88
2022-12-12T12:08:28.820Z,-3.97
2022-12-12T12:09:28.748Z,-3.94
2022-12-12T12:10:28.752Z,-4.00
2022-12-12T12:11:28.735Z,-4.17
2022-12-12T12:12:28.745Z,-4.34
2022-12-12T12:13:28.731Z,-4.35
2022-12-12T12:14:28.703Z,-4.34
2022-12-12T12:15:28.687Z,-4.24
2022-12-12T12:16:28.732Z,-4.15
2022-12-12T12:17:28.684Z,-4.25
2022-12-12T12:18:28.642Z,-4.21
2022-12-12T12:19:28.682Z,-4.15
2022-12-12T12:20:28.620Z,-4.07
2022-12-12T12:21:28.616Z,-3.88
2022-12-12T12:22:28.607Z,-3.65
2022-12-12T12:23:28.604Z,-3.52
2022-12-12T12:24:28.574Z,-3.54
2022-12-12T12:25:28.581Z,-3.59
2022-12-12T12:26:28.555Z,-3.38
2022-12-12T12:27:28.578Z,-3.02
2022-12-12T12:28:28.549Z,-2.66
2022-12-12T12:29:28.565Z,-2.77
2022-12-12T12:30:28.601Z,-3.03
2022-12-12T12:31:28.525Z,-3.16
2022-12-12T12:32:28.516Z,-3.54
2022-12-12T12:33:28.533Z,-3.70
2022-12-12T12:34:28.514Z,-3.78
2022-12-12T12:35:28.461Z,-3.91
2022-12-12T12:36:28.476Z,-3.97
2022-12-12T12:37:28.466Z,-3.88
2022-12-12T12:38:28.441Z,-3.81
2022-12-12T12:39:28.429Z,-3.77